Time;durP1;ratioP1;P1;durP2;ratioP2;P2;SDS_P1;SDS_P2;PMS_P1;PMS_P2;Temp;Humidity;BMP_temperature;BMP_pressure;BME280_temperature;BME280_humidity;BME280_pressure;Samples;Min_cycle;Max_cycle;Signal;HPM_P1;HPM_P2
2023/09/06 00:02:06;;;;;;;;;;;21.40;99.90;;;;;;5096178;28;19918;-72
2023/09/06 00:04:32;;;;;;;;;;;21.40;99.90;;;;;;5095791;28;19904;-72
2023/09/06 00:06:58;;;;;;;;;;;21.30;99.90;;;;;;5096024;28;19911;-72
2023/09/06 00:09:24;;;;;;;;;;;21.30;99.90;;;;;;5096027;28;19915;-72
2023/09/06 00:11:49;;;;;;;;;;;21.30;99.90;;;;;;5095971;28;19953;-72
2023/09/06 00:14:15;;;;;;;;;;;21.30;99.90;;;;;;5095643;28;19915;-72
2023/09/06 00:16:41;;;;;;;;;;;21.40;99.90;;;;;;5096112;28;19904;-72
2023/09/06 00:19:07;;;;;;;;;;;21.40;99.90;;;;;;5094045;28;19904;-72
2023/09/06 00:21:36;;;;;;;;;;;21.40;99.90;;;;;;5093656;28;19958;-72
2023/09/06 00:24:02;;;;;;;;;;;21.30;99.90;;;;;;5094639;28;19904;-72
2023/09/06 00:26:27;;;;;;;;;;;21.30;99.90;;;;;;5095970;28;19911;-72
2023/09/06 00:28:54;;;;;;;;;;;21.30;99.90;;;;;;5095361;28;19904;-72
2023/09/06 00:31:20;;;;;;;;;;;21.30;99.90;;;;;;5095926;28;19904;-73
2023/09/06 00:33:45;;;;;;;;;;;21.20;99.90;;;;;;5095889;28;19914;-72
2023/09/06 00:36:11;;;;;;;;;;;21.20;99.90;;;;;;5096031;28;19944;-72
2023/09/06 00:38:38;;;;;;;;;;;21.20;99.90;;;;;;5094226;28;19926;-72
2023/09/06 00:41:04;;;;;;;;;;;21.20;99.90;;;;;;5095832;28;20371;-72
2023/09/06 00:43:30;;;;;;;;;;;21.20;99.90;;;;;;5095293;28;20013;-72
2023/09/06 00:45:56;;;;;;;;;;;21.20;99.90;;;;;;5095724;28;19920;-73
2023/09/06 00:48:22;;;;;;;;;;;21.10;99.90;;;;;;5095404;28;19912;-72
2023/09/06 00:50:50;;;;;;;;;;;21.10;99.90;;;;;;5094087;28;20256;-72
2023/09/06 00:53:16;;;;;;;;;;;21.20;99.90;;;;;;5093252;28;19908;-73
2023/09/06 00:55:42;;;;;;;;;;;21.10;99.90;;;;;;5095800;28;19908;-72
2023/09/06 00:58:08;;;;;;;;;;;21.10;99.90;;;;;;5093988;28;19904;-72
2023/09/06 01:00:35;;;;;;;;;;;21.10;99.90;;;;;;5095435;28;19915;-72
2023/09/06 01:03:04;;;;;;;;;;;21.10;99.90;;;;;;5093285;28;19904;-72
2023/09/06 01:05:33;;;;;;;;;;;21.00;99.90;;;;;;5095765;28;19977;-72
2023/09/06 01:08:01;;;;;;;;;;;21.00;99.90;;;;;;5093986;28;19904;-72
2023/09/06 01:10:27;;;;;;;;;;;20.90;99.90;;;;;;5095602;28;19915;-72
2023/09/06 01:12:54;;;;;;;;;;;20.90;99.90;;;;;;5093667;28;19908;-72
2023/09/06 01:15:21;;;;;;;;;;;20.90;99.90;;;;;;5095319;28;19904;-72
2023/09/06 01:17:46;;;;;;;;;;;20.90;99.90;;;;;;5094127;28;19911;-72
2023/09/06 01:20:16;;;;;;;;;;;20.90;99.90;;;;;;5095032;28;20391;-72
2023/09/06 01:23:02;;;;;;;;;;;20.80;99.90;;;;;;5094890;28;19911;-72
2023/09/06 01:25:28;;;;;;;;;;;20.90;99.90;;;;;;5095405;28;19915;-72
2023/09/06 01:27:54;;;;;;;;;;;20.90;99.90;;;;;;5095410;28;20376;-72
2023/09/06 01:30:19;;;;;;;;;;;20.90;99.90;;;;;;5094483;28;19904;-72
2023/09/06 01:32:45;;;;;;;;;;;21.00;99.90;;;;;;5098968;28;20326;-72
2023/09/06 01:35:10;;;;;;;;;;;21.00;99.90;;;;;;5097520;28;19904;-72
2023/09/06 01:37:37;;;;;;;;;;;21.00;99.90;;;;;;5098945;28;19998;-72
2023/09/06 01:40:14;;;;;;;;;;;20.90;99.90;;;;;;5096311;28;19926;-72
2023/09/06 01:42:39;;;;;;;;;;;20.90;99.90;;;;;;5089366;28;19904;-72
2023/09/06 01:45:06;;;;;;;;;;;21.00;99.90;;;;;;5098133;28;20291;-72
2023/09/06 01:47:32;;;;;;;;;;;20.90;99.90;;;;;;5097368;28;19904;-72
2023/09/06 01:49:57;;;;;;;;;;;20.90;99.90;;;;;;5098457;28;19915;-72
2023/09/06 01:52:23;;;;;;;;;;;20.90;99.90;;;;;;5098339;28;19920;-73
2023/09/06 01:54:48;;;;;;;;;;;20.80;99.90;;;;;;5098344;28;19915;-72
2023/09/06 01:57:14;;;;;;;;;;;20.80;99.90;;;;;;5098445;28;19915;-72
2023/09/06 01:59:39;;;;;;;;;;;20.80;99.90;;;;;;5097761;28;19931;-72
2023/09/06 02:02:05;;;;;;;;;;;20.80;99.90;;;;;;5098500;28;19904;-72
2023/09/06 02:04:30;;;;;;;;;;;20.70;99.90;;;;;;5097799;28;19904;-73
2023/09/06 02:06:56;;;;;;;;;;;20.70;99.90;;;;;;5098441;28;19908;-72
2023/09/06 02:09:21;;;;;;;;;;;20.70;99.90;;;;;;5097728;28;19904;-72
2023/09/06 02:11:47;;;;;;;;;;;20.70;99.90;;;;;;5098208;28;19904;-73
2023/09/06 02:14:12;;;;;;;;;;;20.80;99.90;;;;;;5097890;28;19903;-72
2023/09/06 02:16:38;;;;;;;;;;;20.90;99.90;;;;;;5096897;28;19908;-72
2023/09/06 02:19:05;;;;;;;;;;;20.90;99.90;;;;;;5096414;28;19962;-72
2023/09/06 02:21:31;;;;;;;;;;;20.90;99.90;;;;;;5097154;28;19925;-72
2023/09/06 02:23:56;;;;;;;;;;;21.00;99.90;;;;;;5097269;28;19986;-72
2023/09/06 02:26:22;;;;;;;;;;;21.00;99.90;;;;;;5097864;28;19911;-72
2023/09/06 02:28:50;;;;;;;;;;;21.00;99.90;;;;;;5097474;28;19911;-72
2023/09/06 02:31:16;;;;;;;;;;;21.00;99.90;;;;;;5097638;28;19910;-73
2023/09/06 02:33:43;;;;;;;;;;;21.00;99.90;;;;;;5097649;28;19904;-72
2023/09/06 02:36:09;;;;;;;;;;;21.00;99.90;;;;;;5097727;28;19915;-72
2023/09/06 02:38:34;;;;;;;;;;;21.00;99.90;;;;;;5097456;28;20710;-73
2023/09/06 02:41:00;;;;;;;;;;;21.00;99.90;;;;;;5096024;28;19908;-72
2023/09/06 02:43:25;;;;;;;;;;;20.90;99.90;;;;;;5096183;28;19991;-72
2023/09/06 02:45:53;;;;;;;;;;;20.90;99.90;;;;;;5097538;28;19916;-72
2023/09/06 02:48:19;;;;;;;;;;;20.80;99.90;;;;;;5097340;28;19926;-72
2023/09/06 02:50:47;;;;;;;;;;;20.80;99.90;;;;;;5095942;28;19912;-72
2023/09/06 02:53:32;;;;;;;;;;;20.70;99.90;;;;;;5094539;28;19904;-72
2023/09/06 02:55:59;;;;;;;;;;;20.70;99.90;;;;;;5097384;28;20360;-72
2023/09/06 02:58:24;;;;;;;;;;;20.60;99.90;;;;;;5097015;28;20364;-72
2023/09/06 03:00:55;;;;;;;;;;;20.60;99.90;;;;;;5096882;28;20067;-73
2023/09/06 03:03:21;;;;;;;;;;;20.60;99.90;;;;;;5084488;28;19968;-72
2023/09/06 03:05:47;;;;;;;;;;;20.60;99.90;;;;;;5096379;28;20403;-72
2023/09/06 03:08:13;;;;;;;;;;;20.60;99.90;;;;;;5096878;28;19939;-73
2023/09/06 03:10:39;;;;;;;;;;;20.60;99.90;;;;;;5096649;28;19918;-72
2023/09/06 03:13:05;;;;;;;;;;;20.60;99.90;;;;;;5097033;28;19950;-73
2023/09/06 03:15:31;;;;;;;;;;;20.60;99.90;;;;;;5096544;28;19908;-72
2023/09/06 03:17:59;;;;;;;;;;;20.50;99.90;;;;;;5096646;28;19904;-72
2023/09/06 03:20:32;;;;;;;;;;;20.50;99.90;;;;;;5094889;28;20002;-72
2023/09/06 03:23:00;;;;;;;;;;;20.50;99.90;;;;;;5095625;28;19904;-72
2023/09/06 03:25:26;;;;;;;;;;;20.60;99.90;;;;;;5096710;28;19922;-72
2023/09/06 03:27:59;;;;;;;;;;;20.60;99.90;;;;;;5095414;28;19907;-72
2023/09/06 03:30:27;;;;;;;;;;;20.50;99.90;;;;;;5081512;28;20367;-72
2023/09/06 03:32:53;;;;;;;;;;;20.50;99.90;;;;;;5096744;28;19971;-72
2023/09/06 03:35:22;;;;;;;;;;;20.60;99.90;;;;;;5094661;28;20016;-73
2023/09/06 03:37:47;;;;;;;;;;;20.50;99.90;;;;;;5095323;28;19912;-72
2023/09/06 03:40:25;;;;;;;;;;;20.50;99.90;;;;;;5094706;28;19908;-73
2023/09/06 03:42:54;;;;;;;;;;;20.50;99.90;;;;;;5096319;28;19956;-72
2023/09/06 03:45:21;;;;;;;;;;;20.60;99.90;;;;;;5095653;28;19915;-72
2023/09/06 03:47:53;;;;;;;;;;;20.60;99.90;;;;;;5096411;28;19919;-72
2023/09/06 03:50:20;;;;;;;;;;;20.50;99.90;;;;;;5096065;28;19926;-72
2023/09/06 03:52:45;;;;;;;;;;;20.50;99.90;;;;;;5093661;28;19957;-72
2023/09/06 03:55:11;;;;;;;;;;;20.40;99.90;;;;;;5096313;28;19908;-72
2023/09/06 03:57:37;;;;;;;;;;;20.40;99.90;;;;;;5094909;28;19908;-72
2023/09/06 04:02:47;;;;;;;;;;;20.40;99.90;;;;;;5096454;28;19915;-72
2023/09/06 04:05:13;;;;;;;;;;;20.40;99.90;;;;;;5096082;28;19904;-72
2023/09/06 04:07:39;;;;;;;;;;;20.30;99.90;;;;;;5094797;28;19930;-72
2023/09/06 04:10:07;;;;;;;;;;;20.20;99.90;;;;;;5096114;28;19915;-72
2023/09/06 04:12:35;;;;;;;;;;;20.20;99.90;;;;;;5094330;28;20316;-72
2023/09/06 04:15:01;;;;;;;;;;;20.20;99.90;;;;;;5095800;28;20261;-73
2023/09/06 04:17:27;;;;;;;;;;;20.20;99.90;;;;;;5095788;28;20134;-72
2023/09/06 04:19:54;;;;;;;;;;;20.30;99.90;;;;;;5094282;28;19911;-72
2023/09/06 04:22:19;;;;;;;;;;;20.30;99.90;;;;;;5094239;28;19904;-72
2023/09/06 04:24:45;;;;;;;;;;;20.30;99.90;;;;;;5095780;28;20256;-73
2023/09/06 04:27:12;;;;;;;;;;;20.40;99.90;;;;;;5095789;28;19997;-72
2023/09/06 04:29:37;;;;;;;;;;;20.40;99.90;;;;;;5095655;28;19904;-73
2023/09/06 04:32:03;;;;;;;;;;;20.40;99.90;;;;;;5094311;28;20409;-72
2023/09/06 04:34:28;;;;;;;;;;;20.50;99.90;;;;;;5095928;28;19907;-72
2023/09/06 04:36:54;;;;;;;;;;;20.50;99.90;;;;;;5095550;28;19923;-72
2023/09/06 04:39:20;;;;;;;;;;;20.50;99.90;;;;;;5094491;28;19904;-72
2023/09/06 04:41:45;;;;;;;;;;;20.60;99.90;;;;;;5094153;28;19918;-72
2023/09/06 04:44:11;;;;;;;;;;;20.50;99.90;;;;;;5095340;28;20273;-72
2023/09/06 04:46:37;;;;;;;;;;;20.60;99.90;;;;;;5095261;28;19920;-74
2023/09/06 04:49:02;;;;;;;;;;;20.60;99.90;;;;;;5095605;28;19999;-72
2023/09/06 04:51:28;;;;;;;;;;;20.70;99.90;;;;;;5095541;28;19907;-73
2023/09/06 04:53:54;;;;;;;;;;;20.70;99.90;;;;;;5094005;28;19919;-72
2023/09/06 04:56:19;;;;;;;;;;;20.70;99.90;;;;;;5095413;28;19948;-73
2023/09/06 04:58:45;;;;;;;;;;;20.80;99.90;;;;;;5094205;28;19954;-78
2023/09/06 05:01:11;;;;;;;;;;;20.80;99.90;;;;;;5095147;28;19915;-76
2023/09/06 05:03:38;;;;;;;;;;;20.80;99.90;;;;;;5094020;28;19904;-78
2023/09/06 05:06:03;;;;;;;;;;;20.80;99.90;;;;;;5096237;28;19990;-76
2023/09/06 05:08:30;;;;;;;;;;;20.80;99.90;;;;;;5098121;28;19951;-77
2023/09/06 05:10:56;;;;;;;;;;;20.80;99.90;;;;;;5099162;28;19961;-77
2023/09/06 05:13:22;;;;;;;;;;;20.80;99.90;;;;;;5099033;28;19930;-77
2023/09/06 05:15:48;;;;;;;;;;;20.80;99.90;;;;;;5099152;28;20241;-77
2023/09/06 05:18:14;;;;;;;;;;;20.80;99.90;;;;;;5099314;28;19920;-77
2023/09/06 05:20:40;;;;;;;;;;;20.80;99.90;;;;;;5096970;28;19912;-79
2023/09/06 05:23:06;;;;;;;;;;;20.80;99.90;;;;;;5099228;28;20484;-78
2023/09/06 05:25:32;;;;;;;;;;;20.90;99.90;;;;;;5099368;28;19904;-79
2023/09/06 05:28:00;;;;;;;;;;;20.90;99.90;;;;;;5099132;28;19904;-78
2023/09/06 05:30:26;;;;;;;;;;;21.00;99.90;;;;;;5098665;28;20439;-79
2023/09/06 05:32:53;;;;;;;;;;;21.00;99.90;;;;;;5097629;28;20267;-79
2023/09/06 05:35:19;;;;;;;;;;;21.10;99.90;;;;;;5096553;28;19934;-82
2023/09/06 05:37:44;;;;;;;;;;;21.20;99.90;;;;;;5097597;28;19912;-78
2023/09/06 05:40:13;;;;;;;;;;;21.20;99.90;;;;;;5098393;28;19957;-74
2023/09/06 05:42:39;;;;;;;;;;;21.30;99.90;;;;;;5099200;28;19904;-76
2023/09/06 05:45:06;;;;;;;;;;;21.40;99.90;;;;;;5098603;28;19920;-83
2023/09/06 05:47:33;;;;;;;;;;;21.40;99.90;;;;;;5098493;28;19904;-80
2023/09/06 05:49:58;;;;;;;;;;;21.40;99.90;;;;;;5098513;28;19904;-80
2023/09/06 05:52:28;;;;;;;;;;;21.40;99.90;;;;;;5098387;28;19930;-79
2023/09/06 05:54:54;;;;;;;;;;;21.50;99.90;;;;;;5098617;28;19911;-79
2023/09/06 05:57:19;;;;;;;;;;;21.50;99.90;;;;;;5098464;28;19903;-79
2023/09/06 05:59:45;;;;;;;;;;;21.50;99.90;;;;;;5092055;28;19912;-77
2023/09/06 06:02:10;;;;;;;;;;;21.50;99.90;;;;;;5093338;28;19915;-77
2023/09/06 06:04:36;;;;;;;;;;;21.50;99.90;;;;;;5092562;28;19908;-78
2023/09/06 06:07:01;;;;;;;;;;;21.50;99.90;;;;;;5093223;28;19904;-77
2023/09/06 06:09:27;;;;;;;;;;;21.60;99.90;;;;;;5097953;28;19904;-80
2023/09/06 06:11:53;;;;;;;;;;;21.70;99.90;;;;;;5096158;28;19918;-77
2023/09/06 06:14:19;;;;;;;;;;;21.70;99.90;;;;;;5084499;28;20367;-79
2023/09/06 06:16:44;;;;;;;;;;;21.70;99.90;;;;;;5077892;28;19939;-80
2023/09/06 06:19:11;;;;;;;;;;;21.70;99.90;;;;;;5097986;28;19957;-83
2023/09/06 06:21:37;;;;;;;;;;;21.70;99.90;;;;;;5097451;28;20435;-77
2023/09/06 06:24:03;;;;;;;;;;;21.90;99.90;;;;;;5083091;28;19908;-79
2023/09/06 06:26:29;;;;;;;;;;;21.90;99.90;;;;;;5097587;28;19908;-80
2023/09/06 06:28:54;;;;;;;;;;;21.90;99.90;;;;;;5097280;28;19954;-76
2023/09/06 06:31:20;;;;;;;;;;;21.90;99.90;;;;;;5096831;28;19911;-78
2023/09/06 06:33:46;;;;;;;;;;;21.90;99.90;;;;;;5097446;28;19907;-76
2023/09/06 06:36:11;;;;;;;;;;;22.00;99.90;;;;;;5097470;28;19908;-81
2023/09/06 06:38:37;;;;;;;;;;;22.00;99.90;;;;;;5097635;28;20436;-77
2023/09/06 06:41:02;;;;;;;;;;;22.10;99.90;;;;;;5087929;28;19912;-80
2023/09/06 06:43:28;;;;;;;;;;;22.20;99.90;;;;;;5097308;28;19904;-79
2023/09/06 06:45:54;;;;;;;;;;;22.20;99.90;;;;;;5096304;28;19927;-76
2023/09/06 06:48:20;;;;;;;;;;;22.20;99.90;;;;;;5097411;28;19915;-80
2023/09/06 06:50:45;;;;;;;;;;;22.30;99.90;;;;;;5096196;28;20322;-77
2023/09/06 06:53:11;;;;;;;;;;;22.30;99.90;;;;;;5096008;28;19904;-77
2023/09/06 06:55:37;;;;;;;;;;;22.30;99.90;;;;;;5097359;28;19908;-79
2023/09/06 06:58:03;;;;;;;;;;;22.30;99.90;;;;;;5093321;28;19943;-81
2023/09/06 07:00:31;;;;;;;;;;;22.40;99.90;;;;;;5097281;28;19971;-77
2023/09/06 07:02:57;;;;;;;;;;;22.50;99.90;;;;;;5094406;28;20478;-78
2023/09/06 07:05:23;;;;;;;;;;;22.50;99.90;;;;;;5097535;28;19908;-78
2023/09/06 07:07:48;;;;;;;;;;;22.60;99.90;;;;;;5096961;28;19904;-78
2023/09/06 07:10:15;;;;;;;;;;;22.60;99.90;;;;;;5095887;28;20386;-79
2023/09/06 07:12:40;;;;;;;;;;;22.70;99.90;;;;;;5096800;28;19911;-79
2023/09/06 07:15:06;;;;;;;;;;;22.70;99.90;;;;;;5096566;28;19904;-82
2023/09/06 07:17:32;;;;;;;;;;;22.80;99.90;;;;;;5095013;28;20380;-79
2023/09/06 07:19:58;;;;;;;;;;;22.80;99.90;;;;;;5096107;28;19911;-85
2023/09/06 07:22:24;;;;;;;;;;;22.90;99.90;;;;;;5088531;28;20119;-78
2023/09/06 07:24:50;;;;;;;;;;;22.90;99.90;;;;;;5084901;28;19970;-83
2023/09/06 07:27:15;;;;;;;;;;;23.00;99.90;;;;;;5095000;28;19912;-79
2023/09/06 07:29:41;;;;;;;;;;;23.10;99.90;;;;;;5094944;28;19990;-76
2023/09/06 07:32:07;;;;;;;;;;;23.10;99.90;;;;;;5096640;28;19973;-79
2023/09/06 07:34:33;;;;;;;;;;;23.10;99.90;;;;;;5096697;28;19904;-77
2023/09/06 07:36:58;;;;;;;;;;;23.20;99.90;;;;;;5095193;28;19908;-78
2023/09/06 07:39:23;;;;;;;;;;;23.20;99.90;;;;;;5096771;28;20410;-81
2023/09/06 07:41:53;;;;;;;;;;;23.40;99.90;;;;;;5096422;28;19931;-81
2023/09/06 07:44:19;;;;;;;;;;;23.40;99.90;;;;;;5084987;28;20287;-79
2023/09/06 07:46:48;;;;;;;;;;;23.50;99.90;;;;;;5093034;28;19923;-86
2023/09/06 07:49:18;;;;;;;;;;;23.60;99.90;;;;;;5095245;28;20489;-78
2023/09/06 07:51:44;;;;;;;;;;;23.60;99.90;;;;;;5096255;28;19947;-80
2023/09/06 07:54:10;;;;;;;;;;;23.70;99.90;;;;;;5096198;28;19908;-83
2023/09/06 07:56:36;;;;;;;;;;;23.70;99.90;;;;;;5096433;28;19953;-84
2023/09/06 07:59:01;;;;;;;;;;;23.80;99.90;;;;;;5095596;28;19903;-77
2023/09/06 08:01:27;;;;;;;;;;;23.80;99.90;;;;;;5094656;28;19930;-77
2023/09/06 08:03:52;;;;;;;;;;;23.90;99.90;;;;;;5095963;28;19904;-79
2023/09/06 08:06:18;;;;;;;;;;;24.00;99.90;;;;;;5080045;28;19908;-79
2023/09/06 08:08:43;;;;;;;;;;;24.00;99.90;;;;;;5087505;28;20192;-78
2023/09/06 08:11:09;;;;;;;;;;;24.10;99.90;;;;;;5089085;28;19908;-80
2023/09/06 08:13:37;;;;;;;;;;;24.20;99.90;;;;;;5093837;28;19922;-80
2023/09/06 08:16:02;;;;;;;;;;;24.20;99.90;;;;;;5092000;28;19974;-80
2023/09/06 08:18:28;;;;;;;;;;;24.20;99.90;;;;;;5093025;28;19904;-78
2023/09/06 08:20:54;;;;;;;;;;;24.20;99.90;;;;;;5087624;28;19919;-78
2023/09/06 08:23:19;;;;;;;;;;;24.40;99.90;;;;;;5093554;28;19962;-77
2023/09/06 08:25:46;;;;;;;;;;;24.50;99.90;;;;;;5089044;28;19907;-76
2023/09/06 08:28:14;;;;;;;;;;;24.70;99.90;;;;;;5093238;28;19939;-77
2023/09/06 08:30:41;;;;;;;;;;;24.60;99.90;;;;;;5091557;28;19930;-76
2023/09/06 08:33:07;;;;;;;;;;;24.70;99.90;;;;;;5092778;28;19908;-74
2023/09/06 08:35:32;;;;;;;;;;;24.60;99.90;;;;;;5088845;28;19975;-74
2023/09/06 08:37:58;;;;;;;;;;;24.60;99.90;;;;;;5091460;28;20487;-73
2023/09/06 08:40:23;;;;;;;;;;;24.70;99.90;;;;;;5093655;28;19915;-75
2023/09/06 08:42:49;;;;;;;;;;;24.70;99.90;;;;;;5098660;28;20441;-73
2023/09/06 08:45:19;;;;;;;;;;;24.80;99.90;;;;;;5097980;28;19969;-73
2023/09/06 08:47:44;;;;;;;;;;;24.90;99.90;;;;;;5097935;28;19949;-72
2023/09/06 08:50:10;;;;;;;;;;;25.00;99.90;;;;;;5094638;28;20475;-72
2023/09/06 08:52:39;;;;;;;;;;;25.10;99.90;;;;;;5098627;28;19908;-72
2023/09/06 08:55:05;;;;;;;;;;;25.10;99.90;;;;;;5096195;28;19904;-72
2023/09/06 08:57:31;;;;;;;;;;;25.20;99.90;;;;;;5097510;28;19908;-72
2023/09/06 08:59:58;;;;;;;;;;;25.40;99.90;;;;;;5094815;28;19931;-71
2023/09/06 09:02:23;;;;;;;;;;;25.50;99.90;;;;;;5098178;28;19966;-73
2023/09/06 09:04:49;;;;;;;;;;;25.40;99.90;;;;;;5091119;28;20268;-73
2023/09/06 09:07:16;;;;;;;;;;;25.50;99.90;;;;;;5094228;28;20482;-73
2023/09/06 09:09:55;;;;;;;;;;;25.60;99.90;;;;;;5097943;28;20395;-73
2023/09/06 09:12:25;;;;;;;;;;;25.70;99.90;;;;;;5094077;28;19915;-72
2023/09/06 09:14:50;;;;;;;;;;;25.80;99.90;;;;;;5096916;28;19904;-76
2023/09/06 09:17:19;;;;;;;;;;;25.80;99.90;;;;;;5089529;28;19919;-73
2023/09/06 09:19:47;;;;;;;;;;;25.70;99.90;;;;;;5097948;28;19908;-74
2023/09/06 09:22:13;;;;;;;;;;;25.80;99.90;;;;;;5094796;28;19908;-72
2023/09/06 09:24:39;;;;;;;;;;;25.70;99.90;;;;;;5095100;28;20387;-75
2023/09/06 09:27:05;;;;;;;;;;;25.70;99.90;;;;;;5097057;28;19930;-74
2023/09/06 09:29:31;;;;;;;;;;;25.80;99.90;;;;;;5093963;28;20314;-74
2023/09/06 09:32:02;;;;;;;;;;;25.90;99.90;;;;;;5093461;28;19915;-74
2023/09/06 09:34:28;;;;;;;;;;;26.00;99.90;;;;;;5096576;28;19904;-73
2023/09/06 09:36:54;;;;;;;;;;;26.10;99.90;;;;;;5093723;28;19911;-74
2023/09/06 09:39:29;;;;;;;;;;;26.10;99.90;;;;;;5095433;28;19911;-74
2023/09/06 09:41:58;;;;;;;;;;;26.10;99.90;;;;;;5096320;28;19961;-76
2023/09/06 09:44:24;;;;;;;;;;;26.20;99.90;;;;;;5092493;28;19904;-72
2023/09/06 09:46:50;;;;;;;;;;;26.10;99.90;;;;;;5092179;28;19966;-73
2023/09/06 09:49:17;;;;;;;;;;;26.30;99.90;;;;;;5096711;28;19904;-72
2023/09/06 09:51:42;;;;;;;;;;;26.30;99.90;;;;;;5089758;28;19908;-73
2023/09/06 09:54:10;;;;;;;;;;;26.40;99.90;;;;;;5091127;28;19965;-74
2023/09/06 09:56:37;;;;;;;;;;;26.50;99.90;;;;;;5092735;28;19956;-73
2023/09/06 09:59:03;;;;;;;;;;;26.60;99.90;;;;;;5095265;28;19908;-72
2023/09/06 10:01:31;;;;;;;;;;;26.60;99.90;;;;;;5094555;28;19908;-73
2023/09/06 10:03:58;;;;;;;;;;;26.60;99.90;;;;;;5097087;28;19904;-73
2023/09/06 10:06:26;;;;;;;;;;;26.70;99.90;;;;;;5094548;28;19970;-73
2023/09/06 10:08:53;;;;;;;;;;;26.70;99.90;;;;;;5096086;28;20253;-75
2023/09/06 10:11:19;;;;;;;;;;;26.80;99.90;;;;;;5091720;28;20368;-74
2023/09/06 10:13:45;;;;;;;;;;;26.90;99.90;;;;;;5096524;28;19961;-73
2023/09/06 10:16:11;;;;;;;;;;;26.80;99.90;;;;;;5094096;28;19912;-76
2023/09/06 10:18:36;;;;;;;;;;;26.90;99.90;;;;;;5090262;28;20272;-74
2023/09/06 10:21:04;;;;;;;;;;;26.90;99.90;;;;;;5093390;28;19919;-74
2023/09/06 10:23:32;;;;;;;;;;;26.90;99.90;;;;;;5093006;28;19908;-73
2023/09/06 10:25:59;;;;;;;;;;;27.00;99.90;;;;;;5091625;28;19962;-72
2023/09/06 10:28:25;;;;;;;;;;;27.10;99.90;;;;;;5095485;28;19918;-73
2023/09/06 10:31:07;;;;;;;;;;;27.10;99.90;;;;;;5091446;28;19915;-74
2023/09/06 10:33:35;;;;;;;;;;;27.20;99.90;;;;;;5091422;28;19914;-72
2023/09/06 10:36:08;;;;;;;;;;;27.20;99.90;;;;;;5093895;28;19995;-73
2023/09/06 10:38:52;;;;;;;;;;;27.30;99.90;;;;;;5091159;28;19909;-72
2023/09/06 10:41:18;;;;;;;;;;;27.20;99.90;;;;;;5095495;28;19995;-74
2023/09/06 10:43:44;;;;;;;;;;;27.20;99.90;;;;;;5092252;28;19939;-74
2023/09/06 10:46:09;;;;;;;;;;;27.30;99.90;;;;;;5091609;28;19973;-73
2023/09/06 10:48:35;;;;;;;;;;;27.20;99.90;;;;;;5092954;28;20006;-75
2023/09/06 10:51:08;;;;;;;;;;;27.40;99.90;;;;;;5092518;28;19904;-73
2023/09/06 10:53:34;;;;;;;;;;;27.30;99.90;;;;;;5094892;28;19904;-72
2023/09/06 10:56:01;;;;;;;;;;;27.40;99.90;;;;;;5092744;28;19989;-74
2023/09/06 10:58:28;;;;;;;;;;;27.40;99.90;;;;;;5090482;28;19950;-73
2023/09/06 11:01:18;;;;;;;;;;;27.40;99.90;;;;;;5094367;28;19908;-72
2023/09/06 11:03:54;;;;;;;;;;;27.40;99.90;;;;;;5095178;28;19943;-73
2023/09/06 11:06:21;;;;;;;;;;;27.60;99.90;;;;;;5091797;28;19951;-73
2023/09/06 11:08:47;;;;;;;;;;;27.70;99.90;;;;;;5092069;28;20392;-74
2023/09/06 11:11:14;;;;;;;;;;;27.70;99.90;;;;;;5091993;28;20271;-74
2023/09/06 11:13:41;;;;;;;;;;;27.70;99.90;;;;;;5093207;28;19904;-73
2023/09/06 11:16:15;;;;;;;;;;;27.70;99.90;;;;;;5092545;28;20249;-73
2023/09/06 11:18:50;;;;;;;;;;;27.70;99.90;;;;;;5092391;28;19912;-73
2023/09/06 11:21:19;;;;;;;;;;;27.80;99.90;;;;;;5094125;28;19919;-73
2023/09/06 11:23:45;;;;;;;;;;;27.90;99.90;;;;;;5092652;28;19983;-73
2023/09/06 11:26:10;;;;;;;;;;;27.80;99.90;;;;;;5091619;28;19908;-73
2023/09/06 11:28:38;;;;;;;;;;;27.80;99.90;;;;;;5093244;28;19908;-73
2023/09/06 11:31:04;;;;;;;;;;;27.80;99.70;;;;;;5092735;28;19911;-72
2023/09/06 11:33:31;;;;;;;;;;;28.00;99.90;;;;;;5090817;28;20380;-72
2023/09/06 11:35:58;;;;;;;;;;;28.10;99.80;;;;;;5092075;28;19979;-72
2023/09/06 11:38:30;;;;;;;;;;;28.30;98.20;;;;;;5079110;28;19908;-72
2023/09/06 11:40:57;;;;;;;;;;;28.30;99.30;;;;;;5092044;28;19919;-73
2023/09/06 11:43:24;;;;;;;;;;;28.40;98.20;;;;;;5096100;28;19904;-72
2023/09/06 11:45:53;;;;;;;;;;;28.50;98.80;;;;;;5096391;28;19923;-72
2023/09/06 11:48:25;;;;;;;;;;;28.50;97.40;;;;;;5094900;28;19911;-72
2023/09/06 11:50:56;;;;;;;;;;;28.60;98.30;;;;;;5096497;28;19915;-73
2023/09/06 11:53:25;;;;;;;;;;;28.70;97.80;;;;;;5091576;28;19908;-72
2023/09/06 11:55:52;;;;;;;;;;;28.80;98.70;;;;;;5096306;28;20000;-72
2023/09/06 11:58:18;;;;;;;;;;;28.70;96.40;;;;;;5095947;28;19977;-72
2023/09/06 12:00:47;;;;;;;;;;;28.60;97.30;;;;;;5096370;28;19916;-73
2023/09/06 12:03:15;;;;;;;;;;;28.70;97.20;;;;;;5093197;28;19908;-72
2023/09/06 12:05:43;;;;;;;;;;;28.70;97.10;;;;;;5096326;28;19904;-72
2023/09/06 12:08:17;;;;;;;;;;;28.70;96.80;;;;;;5096338;28;19911;-72
2023/09/06 12:10:45;;;;;;;;;;;28.70;97.00;;;;;;5094853;28;19912;-74
2023/09/06 12:13:11;;;;;;;;;;;28.80;96.50;;;;;;5095832;28;20381;-72
2023/09/06 12:15:39;;;;;;;;;;;28.80;96.80;;;;;;5095645;28;19908;-72
2023/09/06 12:18:05;;;;;;;;;;;28.70;96.50;;;;;;5095511;28;20356;-72
2023/09/06 12:20:32;;;;;;;;;;;28.80;96.10;;;;;;5091819;28;19931;-73
2023/09/06 12:22:58;;;;;;;;;;;29.00;96.70;;;;;;5090267;28;20422;-73
2023/09/06 12:25:23;;;;;;;;;;;29.10;95.90;;;;;;5095655;28;19935;-72
2023/09/06 12:27:49;;;;;;;;;;;29.10;95.50;;;;;;5095510;28;19910;-73
2023/09/06 12:30:18;;;;;;;;;;;29.20;96.00;;;;;;5095519;28;20388;-73
2023/09/06 12:32:44;;;;;;;;;;;29.20;95.30;;;;;;5094313;28;19943;-73
2023/09/06 12:35:10;;;;;;;;;;;29.20;94.50;;;;;;5095740;28;19947;-73
2023/09/06 12:37:36;;;;;;;;;;;29.10;94.80;;;;;;5091956;28;19920;-73
2023/09/06 12:40:10;;;;;;;;;;;29.20;94.70;;;;;;5091738;28;20089;-73
2023/09/06 12:42:41;;;;;;;;;;;29.30;93.40;;;;;;5094562;28;20322;-72
2023/09/06 12:45:08;;;;;;;;;;;29.40;94.10;;;;;;5095246;28;19912;-73
2023/09/06 12:47:36;;;;;;;;;;;29.40;94.90;;;;;;5095733;28;19908;-73
2023/09/06 12:50:06;;;;;;;;;;;29.50;94.20;;;;;;5095460;28;19932;-73
2023/09/06 12:52:34;;;;;;;;;;;29.40;93.40;;;;;;5092778;28;20283;-75
2023/09/06 12:54:59;;;;;;;;;;;29.50;93.40;;;;;;5090250;28;19919;-72
2023/09/06 12:57:26;;;;;;;;;;;29.60;93.40;;;;;;5093844;28;19904;-73
2023/09/06 12:59:58;;;;;;;;;;;29.60;93.10;;;;;;5092188;28;19908;-73
2023/09/06 13:02:25;;;;;;;;;;;29.60;92.90;;;;;;5080435;28;19908;-73
2023/09/06 13:04:50;;;;;;;;;;;29.70;92.20;;;;;;5094344;28;19911;-73
2023/09/06 13:07:16;;;;;;;;;;;29.80;93.10;;;;;;5095376;28;19904;-72
2023/09/06 13:09:41;;;;;;;;;;;29.90;92.20;;;;;;5095340;28;19926;-72
2023/09/06 13:12:07;;;;;;;;;;;29.80;92.60;;;;;;5095042;28;19925;-72
2023/09/06 13:14:33;;;;;;;;;;;29.70;91.80;;;;;;5095328;28;20436;-73
2023/09/06 13:16:58;;;;;;;;;;;29.80;92.10;;;;;;5088462;28;20004;-73
2023/09/06 13:19:24;;;;;;;;;;;29.90;92.90;;;;;;5094196;28;19912;-72
2023/09/06 13:21:50;;;;;;;;;;;30.00;91.90;;;;;;5088664;28;19911;-72
2023/09/06 13:24:16;;;;;;;;;;;30.10;91.60;;;;;;5095486;28;19908;-72
2023/09/06 13:26:46;;;;;;;;;;;30.10;92.30;;;;;;5096933;28;19908;-72
2023/09/06 13:29:11;;;;;;;;;;;30.30;92.10;;;;;;5098862;28;19911;-72
2023/09/06 13:31:37;;;;;;;;;;;30.40;91.50;;;;;;5097666;28;19904;-72
2023/09/06 13:34:03;;;;;;;;;;;30.20;91.20;;;;;;5098735;28;20337;-71
2023/09/06 13:36:30;;;;;;;;;;;30.30;92.10;;;;;;5091212;28;19908;-71
2023/09/06 13:38:56;;;;;;;;;;;30.20;90.70;;;;;;5097606;28;19904;-71
2023/09/06 13:41:22;;;;;;;;;;;30.20;91.20;;;;;;5098747;28;19911;-71
2023/09/06 13:43:47;;;;;;;;;;;30.20;92.00;;;;;;5098397;28;20283;-71
2023/09/06 13:46:13;;;;;;;;;;;30.30;89.80;;;;;;5098677;28;19966;-70
2023/09/06 13:48:38;;;;;;;;;;;30.50;91.30;;;;;;5097497;28;20829;-71
2023/09/06 13:51:04;;;;;;;;;;;30.50;91.10;;;;;;5098677;28;19940;-71
2023/09/06 13:53:30;;;;;;;;;;;30.60;91.30;;;;;;5097735;28;20493;-73
2023/09/06 13:55:55;;;;;;;;;;;30.60;89.60;;;;;;5098243;28;19911;-73
2023/09/06 13:58:21;;;;;;;;;;;30.70;90.10;;;;;;5097737;28;19908;-71
2023/09/06 14:00:52;;;;;;;;;;;30.80;90.40;;;;;;5096452;28;19908;-72
2023/09/06 14:03:18;;;;;;;;;;;30.70;88.20;;;;;;5097308;28;19904;-72
2023/09/06 14:05:43;;;;;;;;;;;30.70;89.90;;;;;;5098218;28;19904;-71
2023/09/06 14:08:09;;;;;;;;;;;30.70;88.60;;;;;;5097106;28;19904;-73
2023/09/06 14:10:35;;;;;;;;;;;30.70;90.40;;;;;;5096909;28;20276;-73
2023/09/06 14:13:01;;;;;;;;;;;30.50;89.90;;;;;;5096860;28;20447;-72
2023/09/06 14:15:27;;;;;;;;;;;30.50;90.20;;;;;;5098197;28;19904;-72
2023/09/06 14:17:52;;;;;;;;;;;30.50;90.40;;;;;;5098112;28;19911;-73